Pagrindinis puslapis
METAR-TAF:

METAR-TAF

Oro uostai :

Beirutas, Libanas

platuma: 33-49N, ilguma: 035-29E, Aukštis: 29 m

Dabartinis oras

Ataskaita buvo paskelbta 13 minutes, ne 22:00 UTC
Vėjas 7 kt iš Šiaurės
Temperatūra 21°C
Drėgmė 64%
Slėgis 1018 hPa
Matomumas: 8000 m
Su prošvaistėmis ne aukštis 3300 ft

METAR: OLBA 302200Z 36007KT 8000 BKN033 21/14 Q1018 NOSIG

Laikas: 01:13 (22:13 UTC)

Prognozė

Ataskaita buvo paskelbta 6 valandos ir 13 minutes, ne 16:00 UTC
Prognozė galioja nuo 30 metu 18 UTC su 31 metu 24 UTC
Vėjas 8 kt iš Šiaurės
Matomumas 10 km arba daugiau
Mažai debesys ne aukštis 3000 ft
Tapsmas
nuo 31 metu 00 UTC su 31 metu 03 UTC
Vėjas 2 kt nuo kintamojo kryptimis
Tapsmas
nuo 31 metu 06 UTC su 31 metu 09 UTC
Vėjas 8 kt iš Šiaurės
Tapsmas
nuo 31 metu 12 UTC su 31 metu 15 UTC
Vėjas 10 kt iš Šiaurės/Šiaurės Rytų
Tapsmas
nuo 31 metu 18 UTC su 31 metu 21 UTC
Vėjas 10 kt iš Šiaurės Rytų

TAF: OLBA 301600Z 3018/3124 36008KT 9999 FEW030 BECMG 3100/3103 VRB02KT BECMG 3106/3109 36008KT BECMG 3112/3115 02010KT BECMG 3118/3121 04010KT

Orai ataskaitas ir orų prognozės (METAR, TAF).

turimą stotys yra geltonos ir raudonos taškus žemėlapyje.

Perkelti pele per norėdami pamatyti stoties vardą.

Tada spustelėkite, norėdami matyti oro stebėjimo ir prognozės.

Norėdami pakeisti žemėlapį: spustelėkite ant žalios mygtukų su juodo kryžiaus žemyn,; žalią mygtuką su brūkšneliu, jei norite nutolinti; arba žalių rodyklių gretimoms žemėlapius.


METAR-TAF: